sensor_id;sensor_type;location;lat;lon;timestamp;pressure;altitude;pressure_sealevel;temperature;humidity
12182;BME280;6154;51.550;12.138;2023-05-09T00:01:28;101141.38;;;13.51;47.38
12182;BME280;6154;51.550;12.138;2023-05-09T00:03:57;101133.66;;;13.47;47.53
12182;BME280;6154;51.550;12.138;2023-05-09T00:06:26;101132.97;;;13.43;47.77
12182;BME280;6154;51.550;12.138;2023-05-09T00:08:56;101127.72;;;13.42;47.64
12182;BME280;6154;51.550;12.138;2023-05-09T00:11:25;101125.34;;;13.37;47.86
12182;BME280;6154;51.550;12.138;2023-05-09T00:13:53;101124.47;;;13.37;48.01
12182;BME280;6154;51.550;12.138;2023-05-09T00:16:21;101123.62;;;13.36;47.86
12182;BME280;6154;51.550;12.138;2023-05-09T00:18:50;101119.34;;;13.34;47.97
12182;BME280;6154;51.550;12.138;2023-05-09T00:21:18;101121.28;;;13.30;48.67
12182;BME280;6154;51.550;12.138;2023-05-09T00:23:46;101119.56;;;13.29;48.55
12182;BME280;6154;51.550;12.138;2023-05-09T00:26:16;101113.50;;;13.27;48.65
12182;BME280;6154;51.550;12.138;2023-05-09T00:28:45;101115.28;;;13.27;48.14
12182;BME280;6154;51.550;12.138;2023-05-09T00:31:13;101110.75;;;13.29;47.95
12182;BME280;6154;51.550;12.138;2023-05-09T00:33:41;101107.31;;;13.27;48.09
12182;BME280;6154;51.550;12.138;2023-05-09T00:36:09;101102.19;;;13.23;48.30
12182;BME280;6154;51.550;12.138;2023-05-09T00:38:37;101110.16;;;13.23;48.17
12182;BME280;6154;51.550;12.138;2023-05-09T00:41:05;101113.81;;;13.21;47.95
12182;BME280;6154;51.550;12.138;2023-05-09T00:43:37;101100.63;;;13.19;48.07
12182;BME280;6154;51.550;12.138;2023-05-09T00:46:06;101106.06;;;13.16;48.44
12182;BME280;6154;51.550;12.138;2023-05-09T00:48:34;101107.03;;;13.15;48.36
12182;BME280;6154;51.550;12.138;2023-05-09T00:51:02;101101.84;;;13.12;48.41
12182;BME280;6154;51.550;12.138;2023-05-09T00:53:31;101105.41;;;13.13;48.17
12182;BME280;6154;51.550;12.138;2023-05-09T00:55:59;101103.75;;;13.10;47.89
12182;BME280;6154;51.550;12.138;2023-05-09T00:58:28;101103.91;;;13.07;48.27
12182;BME280;6154;51.550;12.138;2023-05-09T01:00:58;101101.34;;;13.06;48.12
12182;BME280;6154;51.550;12.138;2023-05-09T01:03:28;101096.28;;;13.01;48.43
12182;BME280;6154;51.550;12.138;2023-05-09T01:06:02;101099.78;;;13.02;48.13
12182;BME280;6154;51.550;12.138;2023-05-09T01:08:43;101098.16;;;12.99;48.32
12182;BME280;6154;51.550;12.138;2023-05-09T01:11:17;101093.69;;;13.00;49.25
12182;BME280;6154;51.550;12.138;2023-05-09T01:13:53;101098.50;;;12.93;48.83
12182;BME280;6154;51.550;12.138;2023-05-09T01:16:30;101086.09;;;12.93;48.58
12182;BME280;6154;51.550;12.138;2023-05-09T01:19:09;101080.91;;;12.90;49.48
12182;BME280;6154;51.550;12.138;2023-05-09T01:21:43;101090.09;;;12.85;49.29
12182;BME280;6154;51.550;12.138;2023-05-09T01:27:21;101086.81;;;12.80;50.48
12182;BME280;6154;51.550;12.138;2023-05-09T01:29:56;101084.78;;;12.85;50.33
12182;BME280;6154;51.550;12.138;2023-05-09T01:32:27;101081.41;;;12.81;49.12
12182;BME280;6154;51.550;12.138;2023-05-09T01:34:58;101083.22;;;12.81;48.44
12182;BME280;6154;51.550;12.138;2023-05-09T01:37:31;101080.72;;;12.78;48.71
12182;BME280;6154;51.550;12.138;2023-05-09T01:40:06;101076.53;;;12.74;48.68
12182;BME280;6154;51.550;12.138;2023-05-09T01:42:39;101077.13;;;12.79;48.84
12182;BME280;6154;51.550;12.138;2023-05-09T01:45:11;101083.56;;;12.75;49.11
12182;BME280;6154;51.550;12.138;2023-05-09T01:47:42;101077.37;;;12.74;48.82
12182;BME280;6154;51.550;12.138;2023-05-09T01:50:12;101077.63;;;12.70;48.91
12182;BME280;6154;51.550;12.138;2023-05-09T01:52:45;101073.41;;;12.65;48.99
12182;BME280;6154;51.550;12.138;2023-05-09T01:55:15;101079.75;;;12.63;49.10
12182;BME280;6154;51.550;12.138;2023-05-09T01:57:46;101075.44;;;12.60;48.90
12182;BME280;6154;51.550;12.138;2023-05-09T02:00:17;101068.59;;;12.56;49.59
12182;BME280;6154;51.550;12.138;2023-05-09T02:02:47;101070.47;;;12.54;49.56
12182;BME280;6154;51.550;12.138;2023-05-09T02:05:17;101065.16;;;12.54;49.19
12182;BME280;6154;51.550;12.138;2023-05-09T02:07:46;101064.37;;;12.52;49.20
12182;BME280;6154;51.550;12.138;2023-05-09T02:10:15;101062.91;;;12.47;49.42
12182;BME280;6154;51.550;12.138;2023-05-09T02:12:43;101062.22;;;12.43;49.28
12182;BME280;6154;51.550;12.138;2023-05-09T02:15:12;101057.06;;;12.40;49.41
12182;BME280;6154;51.550;12.138;2023-05-09T02:17:42;101065.97;;;12.39;49.37
12182;BME280;6154;51.550;12.138;2023-05-09T02:20:10;101055.81;;;12.30;49.99
12182;BME280;6154;51.550;12.138;2023-05-09T02:22:39;101060.09;;;12.32;49.67
12182;BME280;6154;51.550;12.138;2023-05-09T02:25:10;101054.88;;;12.31;49.45
12182;BME280;6154;51.550;12.138;2023-05-09T02:27:43;101056.94;;;12.26;49.71
12182;BME280;6154;51.550;12.138;2023-05-09T02:30:16;101057.00;;;12.24;49.41
12182;BME280;6154;51.550;12.138;2023-05-09T02:32:49;101063.31;;;12.22;49.90
12182;BME280;6154;51.550;12.138;2023-05-09T02:35:19;101056.16;;;12.24;49.69
12182;BME280;6154;51.550;12.138;2023-05-09T02:37:48;101062.41;;;12.23;49.62
12182;BME280;6154;51.550;12.138;2023-05-09T02:40:19;101068.63;;;12.22;49.53
12182;BME280;6154;51.550;12.138;2023-05-09T02:42:47;101065.19;;;12.20;49.84
12182;BME280;6154;51.550;12.138;2023-05-09T02:45:16;101071.44;;;12.19;49.51
12182;BME280;6154;51.550;12.138;2023-05-09T02:47:44;101061.06;;;12.14;49.27
12182;BME280;6154;51.550;12.138;2023-05-09T02:50:14;101063.81;;;12.13;49.41
12182;BME280;6154;51.550;12.138;2023-05-09T02:52:43;101058.81;;;12.06;50.21
12182;BME280;6154;51.550;12.138;2023-05-09T02:55:11;101057.41;;;11.99;51.46
12182;BME280;6154;51.550;12.138;2023-05-09T02:57:40;101055.94;;;11.94;51.73
12182;BME280;6154;51.550;12.138;2023-05-09T03:00:10;101054.50;;;11.87;51.92
12182;BME280;6154;51.550;12.138;2023-05-09T03:02:38;101056.59;;;11.80;52.20
12182;BME280;6154;51.550;12.138;2023-05-09T03:05:07;101055.97;;;11.75;51.88
12182;BME280;6154;51.550;12.138;2023-05-09T03:07:37;101059.91;;;11.66;52.28
12182;BME280;6154;51.550;12.138;2023-05-09T03:10:06;101056.78;;;11.58;52.40
12182;BME280;6154;51.550;12.138;2023-05-09T03:12:35;101061.38;;;11.55;52.00
12182;BME280;6154;51.550;12.138;2023-05-09T03:15:05;101058.09;;;11.49;51.73
12182;BME280;6154;51.550;12.138;2023-05-09T03:17:34;101047.72;;;11.45;51.77
12182;BME280;6154;51.550;12.138;2023-05-09T03:20:03;101050.56;;;11.40;52.05
12182;BME280;6154;51.550;12.138;2023-05-09T03:22:33;101045.66;;;11.33;52.71
12182;BME280;6154;51.550;12.138;2023-05-09T03:25:04;101045.00;;;11.28;52.94
12182;BME280;6154;51.550;12.138;2023-05-09T03:27:32;101044.31;;;11.24;53.02
12182;BME280;6154;51.550;12.138;2023-05-09T03:30:03;101050.66;;;11.20;53.73
12182;BME280;6154;51.550;12.138;2023-05-09T03:32:39;101040.16;;;11.18;53.56
12182;BME280;6154;51.550;12.138;2023-05-09T03:35:07;101043.81;;;11.16;52.97
12182;BME280;6154;51.550;12.138;2023-05-09T03:37:36;101042.19;;;11.13;53.20
12182;BME280;6154;51.550;12.138;2023-05-09T03:40:07;101044.88;;;11.12;53.09
12182;BME280;6154;51.550;12.138;2023-05-09T03:42:38;101039.72;;;11.09;53.42
12182;BME280;6154;51.550;12.138;2023-05-09T03:45:07;101042.38;;;11.09;53.19
12182;BME280;6154;51.550;12.138;2023-05-09T03:47:36;101043.97;;;11.13;52.18
12182;BME280;6154;51.550;12.138;2023-05-09T03:50:05;101044.66;;;11.16;52.33
12182;BME280;6154;51.550;12.138;2023-05-09T03:52:34;101046.22;;;11.20;52.09
12182;BME280;6154;51.550;12.138;2023-05-09T03:55:06;101044.44;;;11.21;52.97
12182;BME280;6154;51.550;12.138;2023-05-09T03:57:35;101045.38;;;11.20;52.90
12182;BME280;6154;51.550;12.138;2023-05-09T04:00:04;101045.38;;;11.20;52.47
12182;BME280;6154;51.550;12.138;2023-05-09T04:02:40;101048.09;;;11.18;52.54
12182;BME280;6154;51.550;12.138;2023-05-09T04:05:09;101048.09;;;11.18;52.43
12182;BME280;6154;51.550;12.138;2023-05-09T04:07:38;101050.66;;;11.20;53.14
12182;BME280;6154;51.550;12.138;2023-05-09T04:10:10;101047.81;;;11.25;52.38
12182;BME280;6154;51.550;12.138;2023-05-09T04:12:39;101051.31;;;11.25;52.92
12182;BME280;6154;51.550;12.138;2023-05-09T04:15:08;101048.38;;;11.31;51.76
12182;BME280;6154;51.550;12.138;2023-05-09T04:17:37;101046.53;;;11.33;51.84
12182;BME280;6154;51.550;12.138;2023-05-09T04:20:06;101042.62;;;11.40;51.52
12182;BME280;6154;51.550;12.138;2023-05-09T04:22:35;101045.00;;;11.46;51.77
12182;BME280;6154;51.550;12.138;2023-05-09T04:25:04;101040.31;;;11.51;51.56
12182;BME280;6154;51.550;12.138;2023-05-09T04:27:35;101038.31;;;11.57;51.17
12182;BME280;6154;51.550;12.138;2023-05-09T04:30:04;101022.97;;;11.63;50.98
12182;BME280;6154;51.550;12.138;2023-05-09T04:32:33;101025.28;;;11.69;50.85
12182;BME280;6154;51.550;12.138;2023-05-09T04:35:02;101022.34;;;11.75;51.09
12182;BME280;6154;51.550;12.138;2023-05-09T04:37:32;101021.19;;;11.81;50.94
12182;BME280;6154;51.550;12.138;2023-05-09T04:40:01;101027.81;;;11.90;51.33
12182;BME280;6154;51.550;12.138;2023-05-09T04:42:35;101016.84;;;11.97;51.15
12182;BME280;6154;51.550;12.138;2023-05-09T04:45:04;101025.41;;;12.02;51.12
12182;BME280;6154;51.550;12.138;2023-05-09T04:47:33;101032.28;;;12.06;51.13
12182;BME280;6154;51.550;12.138;2023-05-09T04:50:02;101022.12;;;12.15;51.25
12182;BME280;6154;51.550;12.138;2023-05-09T04:52:30;101022.75;;;12.20;50.92
12182;BME280;6154;51.550;12.138;2023-05-09T04:54:58;101022.25;;;12.29;51.15
12182;BME280;6154;51.550;12.138;2023-05-09T04:57:27;101025.53;;;12.34;51.14
12182;BME280;6154;51.550;12.138;2023-05-09T04:59:57;101025.84;;;12.45;50.94
12182;BME280;6154;51.550;12.138;2023-05-09T05:02:26;101023.63;;;12.53;51.07
12182;BME280;6154;51.550;12.138;2023-05-09T05:04:54;101020.63;;;12.59;51.55
12182;BME280;6154;51.550;12.138;2023-05-09T05:07:37;101021.16;;;12.66;50.69
12182;BME280;6154;51.550;12.138;2023-05-09T05:10:06;101027.94;;;12.72;51.17
12182;BME280;6154;51.550;12.138;2023-05-09T05:12:35;101017.06;;;12.76;51.08
12182;BME280;6154;51.550;12.138;2023-05-09T05:15:08;101015.53;;;12.88;50.87
12182;BME280;6154;51.550;12.138;2023-05-09T05:17:36;101009.81;;;12.95;50.95
12182;BME280;6154;51.550;12.138;2023-05-09T05:20:07;101006.87;;;13.00;51.11
12182;BME280;6154;51.550;12.138;2023-05-09T05:22:38;101005.31;;;13.12;51.14
12182;BME280;6154;51.550;12.138;2023-05-09T05:25:07;101000.72;;;13.15;51.75
12182;BME280;6154;51.550;12.138;2023-05-09T05:27:36;100999.87;;;13.15;51.50
12182;BME280;6154;51.550;12.138;2023-05-09T05:30:07;101001.66;;;13.30;51.64
12182;BME280;6154;51.550;12.138;2023-05-09T05:32:36;100991.03;;;13.30;52.26
12182;BME280;6154;51.550;12.138;2023-05-09T05:35:05;100990.31;;;13.42;52.23
12182;BME280;6154;51.550;12.138;2023-05-09T05:37:34;100987.84;;;13.55;51.80
12182;BME280;6154;51.550;12.138;2023-05-09T05:40:06;100987.78;;;13.71;51.34
12182;BME280;6154;51.550;12.138;2023-05-09T05:42:35;100990.94;;;13.77;50.96
12182;BME280;6154;51.550;12.138;2023-05-09T05:45:04;100994.34;;;13.79;51.28
12182;BME280;6154;51.550;12.138;2023-05-09T05:47:36;100988.53;;;14.03;51.24
12182;BME280;6154;51.550;12.138;2023-05-09T05:50:06;100990.16;;;14.05;51.27
12182;BME280;6154;51.550;12.138;2023-05-09T05:52:37;100985.69;;;14.20;51.26
12182;BME280;6154;51.550;12.138;2023-05-09T05:55:07;100995.56;;;14.32;51.10
12182;BME280;6154;51.550;12.138;2023-05-09T05:57:36;100992.00;;;14.48;50.85
12182;BME280;6154;51.550;12.138;2023-05-09T06:00:06;100990.19;;;14.62;50.67
12182;BME280;6154;51.550;12.138;2023-05-09T06:02:42;100989.13;;;14.79;50.43
12182;BME280;6154;51.550;12.138;2023-05-09T06:05:12;100989.13;;;14.93;50.41
12182;BME280;6154;51.550;12.138;2023-05-09T06:07:41;100982.41;;;15.15;50.55
12182;BME280;6154;51.550;12.138;2023-05-09T06:10:10;100983.69;;;15.22;49.83
12182;BME280;6154;51.550;12.138;2023-05-09T06:12:38;100976.84;;;15.45;50.15
12182;BME280;6154;51.550;12.138;2023-05-09T06:15:07;100975.06;;;15.58;50.06
12182;BME280;6154;51.550;12.138;2023-05-09T06:17:36;100975.13;;;15.71;49.89
12182;BME280;6154;51.550;12.138;2023-05-09T06:20:06;100975.69;;;15.76;50.25
12182;BME280;6154;51.550;12.138;2023-05-09T06:22:35;100968.66;;;16.00;49.83
12182;BME280;6154;51.550;12.138;2023-05-09T06:25:03;100970.69;;;16.09;49.97
12182;BME280;6154;51.550;12.138;2023-05-09T06:27:36;100965.25;;;16.24;50.04
12182;BME280;6154;51.550;12.138;2023-05-09T06:30:06;100967.81;;;16.38;49.53
12182;BME280;6154;51.550;12.138;2023-05-09T06:32:52;100957.41;;;16.59;49.39
12182;BME280;6154;51.550;12.138;2023-05-09T06:35:21;100961.25;;;16.67;49.19
12182;BME280;6154;51.550;12.138;2023-05-09T06:37:50;100966.16;;;16.86;48.96
12182;BME280;6154;51.550;12.138;2023-05-09T06:40:18;100955.34;;;17.12;48.89
12182;BME280;6154;51.550;12.138;2023-05-09T06:42:47;100950.69;;;17.27;48.85
12182;BME280;6154;51.550;12.138;2023-05-09T06:45:15;100946.97;;;17.40;48.53
12182;BME280;6154;51.550;12.138;2023-05-09T06:47:44;100949.13;;;17.59;48.44
12182;BME280;6154;51.550;12.138;2023-05-09T06:50:12;100951.87;;;17.70;48.20
12182;BME280;6154;51.550;12.138;2023-05-09T06:52:42;100940.84;;;17.86;47.97
12182;BME280;6154;51.550;12.138;2023-05-09T06:55:10;100938.78;;;18.01;48.09
12182;BME280;6154;51.550;12.138;2023-05-09T06:57:38;100937.59;;;18.16;47.83
12182;BME280;6154;51.550;12.138;2023-05-09T07:00:08;100939.69;;;18.35;47.72
12182;BME280;6154;51.550;12.138;2023-05-09T07:02:39;100937.00;;;18.57;47.57
12182;BME280;6154;51.550;12.138;2023-05-09T07:05:08;100930.41;;;18.61;46.97
12182;BME280;6154;51.550;12.138;2023-05-09T07:07:37;100939.78;;;18.89;47.40
12182;BME280;6154;51.550;12.138;2023-05-09T07:10:09;100925.22;;;19.14;47.32
12182;BME280;6154;51.550;12.138;2023-05-09T07:12:39;100926.28;;;19.12;46.72
12182;BME280;6154;51.550;12.138;2023-05-09T07:15:10;100925.63;;;19.31;46.90
12182;BME280;6154;51.550;12.138;2023-05-09T07:17:38;100917.44;;;19.32;46.73
12182;BME280;6154;51.550;12.138;2023-05-09T07:20:07;100917.56;;;19.63;46.83
12182;BME280;6154;51.550;12.138;2023-05-09T07:22:36;100908.66;;;19.83;46.58
12182;BME280;6154;51.550;12.138;2023-05-09T07:25:08;100912.44;;;20.01;46.43
12182;BME280;6154;51.550;12.138;2023-05-09T07:27:37;100905.53;;;20.08;46.41
12182;BME280;6154;51.550;12.138;2023-05-09T07:30:06;100909.22;;;20.07;45.65
12182;BME280;6154;51.550;12.138;2023-05-09T07:32:35;100907.25;;;20.09;45.89
12182;BME280;6154;51.550;12.138;2023-05-09T07:35:07;100900.09;;;20.20;46.07
12182;BME280;6154;51.550;12.138;2023-05-09T07:37:35;100905.34;;;20.31;45.66
12182;BME280;6154;51.550;12.138;2023-05-09T07:40:04;100899.81;;;20.53;46.07
12182;BME280;6154;51.550;12.138;2023-05-09T07:42:34;100893.38;;;20.75;45.90
12182;BME280;6154;51.550;12.138;2023-05-09T07:45:04;100883.47;;;20.76;45.74
12182;BME280;6154;51.550;12.138;2023-05-09T07:47:33;100885.03;;;20.88;45.73
12182;BME280;6154;51.550;12.138;2023-05-09T07:50:01;100873.28;;;21.08;45.83
12182;BME280;6154;51.550;12.138;2023-05-09T07:52:29;100877.69;;;21.09;45.16
12182;BME280;6154;51.550;12.138;2023-05-09T07:54:57;100865.09;;;21.29;44.86
12182;BME280;6154;51.550;12.138;2023-05-09T07:57:25;100866.78;;;21.40;45.58
12182;BME280;6154;51.550;12.138;2023-05-09T07:59:55;100861.94;;;21.43;45.55
12182;BME280;6154;51.550;12.138;2023-05-09T08:02:23;100856.69;;;21.51;45.06
12182;BME280;6154;51.550;12.138;2023-05-09T08:04:52;100866.44;;;21.72;45.12
12182;BME280;6154;51.550;12.138;2023-05-09T08:07:20;100855.13;;;21.68;44.90
12182;BME280;6154;51.550;12.138;2023-05-09T08:09:48;100856.25;;;21.66;45.27
12182;BME280;6154;51.550;12.138;2023-05-09T08:12:16;100861.34;;;21.69;44.68
12182;BME280;6154;51.550;12.138;2023-05-09T08:14:45;100853.06;;;21.90;45.40
12182;BME280;6154;51.550;12.138;2023-05-09T08:19:42;100850.81;;;21.85;44.74
12182;BME280;6154;51.550;12.138;2023-05-09T08:22:15;100843.41;;;21.97;45.59
12182;BME280;6154;51.550;12.138;2023-05-09T08:24:43;100831.16;;;21.75;44.16
12182;BME280;6154;51.550;12.138;2023-05-09T08:27:12;100831.16;;;22.12;45.37
12182;BME280;6154;51.550;12.138;2023-05-09T08:29:41;100827.81;;;21.91;44.53
12182;BME280;6154;51.550;12.138;2023-05-09T08:32:10;100819.00;;;21.98;44.46
12182;BME280;6154;51.550;12.138;2023-05-09T08:34:39;100814.28;;;22.10;44.64
12182;BME280;6154;51.550;12.138;2023-05-09T08:37:07;100817.00;;;22.00;44.52
12182;BME280;6154;51.550;12.138;2023-05-09T08:39:37;100814.88;;;22.31;45.19
12182;BME280;6154;51.550;12.138;2023-05-09T08:42:07;100807.22;;;22.72;44.84
12182;BME280;6154;51.550;12.138;2023-05-09T08:44:36;100809.22;;;22.70;43.90
12182;BME280;6154;51.550;12.138;2023-05-09T08:47:04;100804.38;;;22.56;43.60
12182;BME280;6154;51.550;12.138;2023-05-09T08:49:34;100805.56;;;23.07;44.54
12182;BME280;6154;51.550;12.138;2023-05-09T08:52:04;100800.41;;;22.96;44.35
12182;BME280;6154;51.550;12.138;2023-05-09T08:54:33;100801.88;;;22.45;43.63
12182;BME280;6154;51.550;12.138;2023-05-09T08:57:02;100804.97;;;22.95;43.97
12182;BME280;6154;51.550;12.138;2023-05-09T08:59:32;100802.19;;;22.87;44.17
12182;BME280;6154;51.550;12.138;2023-05-09T09:02:05;100800.16;;;23.07;43.64
12182;BME280;6154;51.550;12.138;2023-05-09T09:04:33;100789.47;;;23.23;43.31
12182;BME280;6154;51.550;12.138;2023-05-09T09:07:04;100786.97;;;23.47;43.86
12182;BME280;6154;51.550;12.138;2023-05-09T09:09:34;100783.53;;;23.63;42.94
12182;BME280;6154;51.550;12.138;2023-05-09T09:12:05;100782.91;;;23.51;43.04
12182;BME280;6154;51.550;12.138;2023-05-09T09:14:37;100781.34;;;23.41;41.84
12182;BME280;6154;51.550;12.138;2023-05-09T09:17:07;100782.97;;;23.34;42.20
12182;BME280;6154;51.550;12.138;2023-05-09T09:19:36;100780.28;;;23.86;42.16
12182;BME280;6154;51.550;12.138;2023-05-09T09:22:12;100779.00;;;23.72;42.14
12182;BME280;6154;51.550;12.138;2023-05-09T09:24:42;100768.84;;;24.00;41.54
12182;BME280;6154;51.550;12.138;2023-05-09T09:27:10;100768.72;;;24.09;42.35
12182;BME280;6154;51.550;12.138;2023-05-09T09:29:39;100759.66;;;24.35;41.73
12182;BME280;6154;51.550;12.138;2023-05-09T09:32:07;100758.34;;;24.39;42.18
12182;BME280;6154;51.550;12.138;2023-05-09T09:34:35;100755.50;;;24.65;42.01
12182;BME280;6154;51.550;12.138;2023-05-09T09:37:05;100751.97;;;24.73;40.85
12182;BME280;6154;51.550;12.138;2023-05-09T09:39:34;100748.94;;;24.76;41.30
12182;BME280;6154;51.550;12.138;2023-05-09T09:42:10;100738.09;;;24.68;40.39
12182;BME280;6154;51.550;12.138;2023-05-09T09:44:39;100739.94;;;24.83;39.86
12182;BME280;6154;51.550;12.138;2023-05-09T09:47:08;100740.78;;;24.84;41.53
12182;BME280;6154;51.550;12.138;2023-05-09T09:49:43;100747.56;;;24.80;40.73
12182;BME280;6154;51.550;12.138;2023-05-09T09:52:21;100737.25;;;25.00;38.87
12182;BME280;6154;51.550;12.138;2023-05-09T09:54:53;100732.84;;;24.74;38.18
12182;BME280;6154;51.550;12.138;2023-05-09T09:57:36;100731.13;;;25.30;39.58
12182;BME280;6154;51.550;12.138;2023-05-09T10:00:06;100723.72;;;24.75;37.78
12182;BME280;6154;51.550;12.138;2023-05-09T10:02:45;100727.59;;;25.21;40.62
12182;BME280;6154;51.550;12.138;2023-05-09T10:05:18;100725.22;;;24.61;37.58
12182;BME280;6154;51.550;12.138;2023-05-09T10:07:53;100730.97;;;24.99;39.55
12182;BME280;6154;51.550;12.138;2023-05-09T10:10:25;100718.47;;;24.98;38.96
12182;BME280;6154;51.550;12.138;2023-05-09T10:12:56;100714.69;;;25.32;39.41
12182;BME280;6154;51.550;12.138;2023-05-09T10:15:25;100711.75;;;25.58;38.82
12182;BME280;6154;51.550;12.138;2023-05-09T10:18:09;100710.00;;;25.65;39.24
12182;BME280;6154;51.550;12.138;2023-05-09T10:20:37;100700.84;;;25.10;38.46
12182;BME280;6154;51.550;12.138;2023-05-09T10:23:07;100707.63;;;25.78;40.02
12182;BME280;6154;51.550;12.138;2023-05-09T10:25:45;100691.56;;;25.60;39.45
12182;BME280;6154;51.550;12.138;2023-05-09T10:28:17;100706.06;;;25.36;38.06
12182;BME280;6154;51.550;12.138;2023-05-09T10:30:49;100693.41;;;24.88;38.30
12182;BME280;6154;51.550;12.138;2023-05-09T10:33:25;100691.22;;;25.71;38.87
12182;BME280;6154;51.550;12.138;2023-05-09T10:35:53;100678.69;;;25.70;39.17
12182;BME280;6154;51.550;12.138;2023-05-09T10:38:23;100680.38;;;25.71;38.97
12182;BME280;6154;51.550;12.138;2023-05-09T10:40:53;100685.06;;;25.86;39.92
12182;BME280;6154;51.550;12.138;2023-05-09T10:43:22;100677.84;;;26.01;39.19
12182;BME280;6154;51.550;12.138;2023-05-09T10:45:51;100668.44;;;26.34;39.68
12182;BME280;6154;51.550;12.138;2023-05-09T10:48:21;100675.19;;;25.93;39.67
12182;BME280;6154;51.550;12.138;2023-05-09T10:50:51;100663.41;;;26.31;39.81
12182;BME280;6154;51.550;12.138;2023-05-09T10:53:19;100660.53;;;25.71;38.28
12182;BME280;6154;51.550;12.138;2023-05-09T10:55:53;100655.28;;;26.00;38.65
12182;BME280;6154;51.550;12.138;2023-05-09T10:58:26;100657.47;;;26.05;38.74
12182;BME280;6154;51.550;12.138;2023-05-09T11:00:56;100648.44;;;26.13;38.38
12182;BME280;6154;51.550;12.138;2023-05-09T11:03:26;100646.91;;;26.41;38.27
12182;BME280;6154;51.550;12.138;2023-05-09T11:05:56;100639.16;;;26.30;38.26
12182;BME280;6154;51.550;12.138;2023-05-09T11:08:27;100639.56;;;26.64;38.94
12182;BME280;6154;51.550;12.138;2023-05-09T11:10:57;100638.22;;;26.46;38.26
12182;BME280;6154;51.550;12.138;2023-05-09T11:13:30;100640.56;;;25.95;37.19
12182;BME280;6154;51.550;12.138;2023-05-09T11:16:08;100628.06;;;26.17;37.21
12182;BME280;6154;51.550;12.138;2023-05-09T11:18:49;100620.22;;;26.22;36.52
12182;BME280;6154;51.550;12.138;2023-05-09T11:21:19;100624.84;;;25.90;36.68
12182;BME280;6154;51.550;12.138;2023-05-09T11:23:48;100616.56;;;25.84;37.72
12182;BME280;6154;51.550;12.138;2023-05-09T11:26:27;100610.50;;;26.27;37.98
12182;BME280;6154;51.550;12.138;2023-05-09T11:28:58;100600.50;;;26.51;36.92
12182;BME280;6154;51.550;12.138;2023-05-09T11:31:26;100596.56;;;26.30;38.06
12182;BME280;6154;51.550;12.138;2023-05-09T11:33:59;100598.81;;;26.04;38.14
12182;BME280;6154;51.550;12.138;2023-05-09T11:36:31;100602.63;;;26.41;37.89
12182;BME280;6154;51.550;12.138;2023-05-09T11:39:02;100592.09;;;26.15;37.55
12182;BME280;6154;51.550;12.138;2023-05-09T11:41:37;100584.50;;;26.85;37.79
12182;BME280;6154;51.550;12.138;2023-05-09T11:44:17;100580.97;;;27.00;36.93
12182;BME280;6154;51.550;12.138;2023-05-09T11:46:47;100577.09;;;26.27;36.30
12182;BME280;6154;51.550;12.138;2023-05-09T11:49:16;100572.03;;;26.47;37.27
12182;BME280;6154;51.550;12.138;2023-05-09T11:51:45;100567.19;;;26.34;38.45
12182;BME280;6154;51.550;12.138;2023-05-09T11:54:13;100553.41;;;26.73;38.83
12182;BME280;6154;51.550;12.138;2023-05-09T11:56:43;100553.97;;;26.54;37.59
12182;BME280;6154;51.550;12.138;2023-05-09T11:59:12;100537.88;;;26.97;37.35
12182;BME280;6154;51.550;12.138;2023-05-09T12:01:41;100546.78;;;27.05;37.72
12182;BME280;6154;51.550;12.138;2023-05-09T12:04:10;100535.63;;;27.15;36.67
12182;BME280;6154;51.550;12.138;2023-05-09T12:06:38;100535.09;;;27.05;36.70
12182;BME280;6154;51.550;12.138;2023-05-09T12:09:08;100527.56;;;27.36;37.60
12182;BME280;6154;51.550;12.138;2023-05-09T12:11:36;100520.50;;;27.06;36.17
12182;BME280;6154;51.550;12.138;2023-05-09T12:14:06;100526.09;;;27.04;36.85
12182;BME280;6154;51.550;12.138;2023-05-09T12:16:43;100524.59;;;27.53;38.13
12182;BME280;6154;51.550;12.138;2023-05-09T12:19:12;100522.38;;;27.41;35.23
12182;BME280;6154;51.550;12.138;2023-05-09T12:21:40;100517.78;;;27.78;36.71
12182;BME280;6154;51.550;12.138;2023-05-09T12:24:08;100515.13;;;27.48;36.52
12182;BME280;6154;51.550;12.138;2023-05-09T12:26:37;100506.69;;;27.43;37.49
12182;BME280;6154;51.550;12.138;2023-05-09T12:29:07;100513.81;;;27.44;36.81
12182;BME280;6154;51.550;12.138;2023-05-09T12:31:35;100499.84;;;26.97;36.00
12182;BME280;6154;51.550;12.138;2023-05-09T12:34:04;100499.84;;;27.26;36.40
12182;BME280;6154;51.550;12.138;2023-05-09T12:36:33;100496.28;;;27.11;36.86
12182;BME280;6154;51.550;12.138;2023-05-09T12:39:02;100484.19;;;26.99;37.12
12182;BME280;6154;51.550;12.138;2023-05-09T12:41:41;100482.88;;;27.45;37.62
12182;BME280;6154;51.550;12.138;2023-05-09T12:44:27;100478.03;;;27.62;37.01
12182;BME280;6154;51.550;12.138;2023-05-09T12:46:57;100465.19;;;27.71;37.18
12182;BME280;6154;51.550;12.138;2023-05-09T12:49:26;100467.22;;;27.26;36.12
12182;BME280;6154;51.550;12.138;2023-05-09T12:51:57;100454.94;;;27.15;35.84
12182;BME280;6154;51.550;12.138;2023-05-09T12:54:28;100447.28;;;27.40;36.72
12182;BME280;6154;51.550;12.138;2023-05-09T12:56:57;100439.25;;;27.75;37.25
12182;BME280;6154;51.550;12.138;2023-05-09T12:59:28;100434.81;;;27.95;37.09
12182;BME280;6154;51.550;12.138;2023-05-09T13:01:58;100439.78;;;28.13;36.18
12182;BME280;6154;51.550;12.138;2023-05-09T13:04:27;100424.19;;;28.56;36.19
12182;BME280;6154;51.550;12.138;2023-05-09T13:06:56;100424.22;;;28.28;35.65
12182;BME280;6154;51.550;12.138;2023-05-09T13:09:26;100421.44;;;28.56;36.14
12182;BME280;6154;51.550;12.138;2023-05-09T13:11:54;100414.84;;;28.10;35.21